Pagrindinis puslapis
METAR-TAF:

METAR-TAF

Oro uostai :

Fort Severn, Ontarijas, Kanada

platuma: 56-01-08N, ilguma: 87-40-34W, Aukštis: 16 m

Dabartinis oras

Ataskaita buvo paskelbta 16 minutes, ne 13:36 UTC
Vėjas 11 kt iš Vakarų
Temperatūra -29°C
Drėgmė 68%
Slėgis 1023 hPa
Matomumas: 4.8 km
Apsiniaukę ne aukštis 4000 ft
sniegas

METAR: CYER 191336Z AUTO 27011KT 3SM -SN OVC040 M29/M33 A3020 RMK SLP230

Laikas: 08:52 (13:52 UTC)

Prognozė

Ataskaita buvo paskelbta 14 minutes, ne 13:38 UTC
Prognozė galioja nuo 19 metu 14 UTC su 19 metu 20 UTC
Vėjas 12 kt iš Vakarų su gūsio iki 22 kt
Matomumas: 10 km
Mažai debesys ne aukštis 2000 ft
Apsiniaukę ne aukštis 4000 ft
Laikinai
nuo 19 metu 14 UTC su 19 metu 17 UTC
Matomumas: 8.0 km
Su prošvaistėmis ne aukštis 2000 ft
Apsiniaukę ne aukštis 4000 ft
sniegas

TAF: CYER 191338Z 1914/1920 26012G22KT P6SM FEW020 OVC040 TEMPO 1914/1917 5SM -SN BKN020 OVC040 RMK FCST BASED ON AUTO OBS. NXT FCST WILL BE ISSUED AT 200945Z

Orai ataskaitas ir orų prognozės (METAR, TAF).

turimą stotys yra geltonos ir raudonos taškus žemėlapyje.

Perkelti pele per norėdami pamatyti stoties vardą.

Tada spustelėkite, norėdami matyti oro stebėjimo ir prognozės.

Norėdami pakeisti žemėlapį: spustelėkite ant žalios mygtukų su juodo kryžiaus žemyn,; žalią mygtuką su brūkšneliu, jei norite nutolinti; arba žalių rodyklių gretimoms žemėlapius.


METAR-TAF: